메인 페이지
METAR-TAF:

METAR-TAF

공항 :

알마티 국제공항

알마티, 카자흐스탄

위도: 43-14N, 경도: 076-56E, 고도: 847m

현재 날씨관측

예보는 42분 전, 00:00시(UTC)에 발표되었습니다.
북북서4kt
온도 8°C
습도 87%
기압 1015 hPa
시정 10km 이상
고도 10000ft 상공 구름 조금

METAR: UAAA 190000Z 34002MPS 9999 FEW100 08/06 Q1015 NOSIG

시각: 06:42 (00:42 UTC)

예보

예보는 1 시간 42분 전, 23:00시(UTC)에 발표되었습니다.
예보 대상 시간: 19일 00시부터 19일 24시까지 (UTC)
북동6kt
시정 10km 이상
고도 5000ft 상공 구름 보통, 적란운.
고도 10000ft 상공 구름 많음
일시적
19일 00시부터 19일 03시까지 (UTC)
남서4kt
시정: 3100m
박무, 연기
일시적
19일 03시부터 19일 12시까지 (UTC)
6kt, 순간 최대 풍속 19kt
전환 중
19일 12시부터 19일 13시까지 (UTC)
남남동6kt
일시적
19일 14시부터 19일 24시까지 (UTC)
남서6kt
시정: 3100m
박무, 연기,

TAF: UAAA 182300Z 1900/1924 04003MPS 9999 SCT050CB BKN100 TX23/1911Z TN08/1900Z TEMPO 1900/1903 23002MPS 3100 BR FU TEMPO 1903/1912 09003G10MPS BECMG 1912/1913 16003MPS TEMPO 1914/1924 22003MPS 3100 BR FU

4,000개 이상의 공항 관측 자료 및 예보 (METAR 및 TAF 보고).

지도상에서 검색 가능한 기상관측소가 노란 점과 빨간 점으로 표시되어 있습니다.

기상관측소 명을 보려면 표시 위로 마우스를 이동하세요.

날씨 관측과 예보를 보려면 클릭하세요.

지도 변경 : 확대하려면 엑스 표시가 있는 녹색 버튼, 축소하려면 빼기 표시가 있는 녹색 버튼, 다음 페이지의 지도를 보려면 녹색 화살표를 클릭하세요.


METAR-TAF: